createdAt,value
2019-04-19T00:02:08.096Z,2.97
2019-04-19T00:04:35.260Z,3.43
2019-04-19T00:07:14.373Z,4.80
2019-04-19T00:09:46.975Z,4.50
2019-04-19T00:12:20.762Z,3.57
2019-04-19T00:14:37.858Z,3.30
2019-04-19T00:17:14.767Z,3.53
2019-04-19T00:19:58.054Z,3.27
2019-04-19T00:22:38.647Z,3.23
2019-04-19T00:24:37.835Z,3.40
2019-04-19T00:27:07.648Z,3.50
2019-04-19T00:29:44.770Z,3.00
2019-04-19T00:32:20.710Z,3.50
2019-04-19T00:34:38.147Z,3.23
2019-04-19T00:37:07.852Z,3.87
2019-04-19T00:39:52.753Z,4.33
2019-04-19T00:42:35.643Z,3.43
2019-04-19T00:45:09.080Z,2.43
2019-04-19T00:47:41.162Z,3.73
2019-04-19T00:50:05.983Z,3.70
2019-04-19T00:52:52.257Z,3.20
2019-04-19T00:55:03.632Z,3.50
2019-04-19T00:57:36.070Z,3.40
2019-04-19T00:59:54.895Z,3.40
2019-04-19T01:02:24.878Z,3.40
2019-04-19T01:04:57.298Z,4.00
2019-04-19T01:07:30.858Z,4.00
2019-04-19T01:10:09.825Z,3.17
2019-04-19T01:12:43.193Z,3.80
2019-04-19T01:15:05.786Z,3.33
2019-04-19T01:17:46.011Z,3.90
2019-04-19T01:20:01.182Z,3.97
2019-04-19T01:22:30.141Z,2.80
2019-04-19T01:24:58.250Z,3.40
2019-04-19T01:27:29.538Z,4.20
2019-04-19T01:29:59.376Z,2.87
2019-04-19T01:32:28.383Z,3.60
2019-04-19T01:35:03.476Z,3.70
2019-04-19T01:37:28.688Z,2.93
2019-04-19T01:40:14.963Z,3.43
2019-04-19T01:42:43.854Z,3.80
2019-04-19T01:45:29.279Z,3.13
2019-04-19T01:48:22.158Z,3.53
2019-04-19T01:50:50.777Z,3.40
2019-04-19T01:53:21.771Z,4.10
2019-04-19T01:55:35.813Z,5.90
2019-04-19T01:58:06.782Z,2.83
2019-04-19T02:00:39.797Z,4.13
2019-04-19T02:03:07.561Z,3.07
2019-04-19T02:05:36.204Z,4.43
2019-04-19T02:08:08.391Z,4.27
2019-04-19T02:11:26.802Z,4.00
2019-04-19T02:13:51.294Z,3.03
2019-04-19T02:16:16.993Z,3.63
2019-04-19T02:18:43.092Z,3.63
2019-04-19T02:21:12.919Z,3.87
2019-04-19T02:23:50.794Z,2.93
2019-04-19T02:26:16.817Z,3.23
2019-04-19T02:28:44.573Z,3.77
2019-04-19T02:31:37.399Z,3.27
2019-04-19T02:34:16.095Z,3.30
2019-04-19T02:36:52.187Z,3.17
2019-04-19T02:41:40.112Z,3.30
2019-04-19T02:49:23.815Z,3.53
2019-04-19T02:51:50.235Z,4.33
2019-04-19T02:54:17.018Z,3.90
2019-04-19T02:59:37.174Z,3.20
2019-04-19T03:02:07.462Z,3.50
2019-04-19T03:06:47.706Z,3.80
2019-04-19T03:09:09.311Z,5.10
2019-04-19T03:11:53.284Z,4.77
2019-04-19T03:14:22.373Z,3.43
2019-04-19T03:17:02.250Z,4.07
2019-04-19T03:19:20.950Z,4.30
2019-04-19T03:21:55.029Z,3.87
2019-04-19T03:24:23.885Z,4.27
2019-04-19T03:26:54.060Z,4.00
2019-04-19T03:29:20.913Z,3.73
2019-04-19T03:32:27.993Z,4.10
2019-04-19T03:36:55.016Z,4.00
2019-04-19T03:39:29.798Z,3.70
2019-04-19T03:42:05.155Z,3.07
2019-04-19T03:44:34.343Z,3.70
2019-04-19T03:49:37.192Z,4.03
2019-04-19T03:52:15.646Z,3.57
2019-04-19T03:54:37.239Z,2.90
2019-04-19T03:57:04.803Z,3.37
2019-04-19T03:59:20.319Z,3.50
2019-04-19T04:01:53.290Z,3.07
2019-04-19T04:04:24.080Z,3.47
2019-04-19T04:06:50.552Z,3.30
2019-04-19T04:09:25.064Z,4.13
2019-04-19T04:12:03.234Z,3.63
2019-04-19T04:14:41.384Z,4.43
2019-04-19T04:17:00.174Z,4.83
2019-04-19T04:19:31.505Z,3.47
2019-04-19T04:22:00.728Z,4.63
2019-04-19T04:24:36.226Z,4.27
2019-04-19T04:27:07.658Z,4.30
2019-04-19T04:29:36.488Z,4.00
2019-04-19T04:32:15.089Z,4.63
2019-04-19T04:34:47.065Z,4.50
2019-04-19T04:37:20.389Z,3.60
2019-04-19T04:39:34.502Z,5.53
2019-04-19T04:42:11.314Z,5.10
2019-04-19T04:45:02.166Z,4.10
2019-04-19T04:47:25.716Z,4.60
2019-04-19T04:50:03.150Z,3.57
2019-04-19T04:52:33.583Z,2.90
2019-04-19T04:55:05.527Z,3.60
2019-04-19T04:57:42.858Z,3.50
2019-04-19T05:00:07.573Z,4.47
2019-04-19T05:02:55.322Z,3.53
2019-04-19T05:05:24.536Z,4.23
2019-04-19T05:07:58.070Z,3.70
2019-04-19T05:10:24.858Z,4.80
2019-04-19T05:15:43.329Z,3.67
2019-04-19T05:18:05.038Z,2.83
2019-04-19T05:20:29.145Z,4.17
2019-04-19T05:22:59.368Z,3.30
2019-04-19T05:25:36.268Z,3.27
2019-04-19T05:28:05.560Z,3.10
2019-04-19T05:30:13.317Z,8.20
2019-04-19T05:32:49.034Z,7.30
2019-04-19T05:35:25.845Z,6.33
2019-04-19T05:38:00.857Z,4.80
2019-04-19T05:40:38.881Z,3.67
2019-04-19T05:43:37.233Z,6.00
2019-04-19T05:46:03.721Z,4.93
2019-04-19T05:48:20.982Z,4.10
2019-04-19T05:51:06.115Z,5.37
2019-04-19T05:53:20.076Z,4.80
2019-04-19T05:55:38.965Z,5.10
2019-04-19T05:58:16.513Z,6.07
2019-04-19T06:00:55.931Z,4.53
2019-04-19T06:03:16.528Z,4.50
2019-04-19T06:08:18.596Z,4.87
2019-04-19T06:10:47.911Z,5.17
2019-04-19T06:13:14.172Z,5.37
2019-04-19T06:16:04.195Z,5.00
2019-04-19T06:18:26.082Z,4.83
2019-04-19T06:21:04.221Z,4.97
2019-04-19T06:23:38.713Z,4.23
2019-04-19T06:26:35.425Z,4.20
2019-04-19T06:28:43.928Z,4.50
2019-04-19T06:31:14.251Z,4.93
2019-04-19T06:33:32.091Z,4.43
2019-04-19T06:35:53.771Z,4.67
2019-04-19T06:38:17.921Z,4.50
2019-04-19T06:40:56.432Z,4.17
2019-04-19T06:43:33.580Z,3.50
2019-04-19T06:46:02.606Z,7.67
2019-04-19T06:48:22.215Z,5.37
2019-04-19T06:50:53.814Z,7.20
2019-04-19T06:53:18.984Z,8.57
2019-04-19T06:55:51.461Z,12.10
2019-04-19T06:58:24.022Z,12.33
2019-04-19T07:01:00.630Z,10.30
2019-04-19T07:03:19.620Z,6.13
2019-04-19T07:06:06.429Z,6.37
2019-04-19T07:08:59.371Z,6.17
2019-04-19T07:11:11.236Z,5.50
2019-04-19T07:13:32.297Z,4.90
2019-04-19T07:16:16.097Z,4.47
2019-04-19T07:18:33.768Z,4.07
2019-04-19T07:21:12.004Z,5.00
2019-04-19T07:23:43.733Z,8.87
2019-04-19T07:26:16.987Z,8.10
2019-04-19T07:28:28.491Z,5.20
2019-04-19T07:31:01.683Z,6.03
2019-04-19T07:33:41.509Z,5.37
2019-04-19T07:36:17.356Z,5.60
2019-04-19T07:38:53.357Z,6.50
2019-04-19T07:41:16.655Z,4.17
2019-04-19T07:43:48.354Z,5.13
2019-04-19T07:46:28.056Z,4.40
2019-04-19T07:48:40.650Z,5.27
2019-04-19T07:51:15.205Z,3.43
2019-04-19T07:53:46.267Z,3.13
2019-04-19T07:56:23.897Z,3.93
2019-04-19T07:59:05.094Z,4.87
2019-04-19T08:04:24.156Z,3.87
2019-04-19T08:06:43.728Z,4.70
2019-04-19T08:09:11.022Z,4.70
2019-04-19T08:11:46.850Z,3.60
2019-04-19T08:14:07.645Z,3.63
2019-04-19T08:28:56.711Z,3.50
2019-04-19T08:31:19.568Z,4.27
2019-04-19T08:33:49.504Z,4.53
2019-04-19T08:36:25.512Z,3.63
2019-04-19T08:39:19.137Z,4.23
2019-04-19T08:41:36.741Z,3.40
2019-04-19T08:44:10.305Z,3.90
2019-04-19T08:46:28.197Z,4.10
2019-04-19T08:49:24.127Z,3.53
2019-04-19T08:51:46.822Z,3.20
2019-04-19T08:54:36.940Z,3.13
2019-04-19T08:56:56.762Z,3.90
2019-04-19T08:59:39.891Z,3.50
2019-04-19T09:02:05.572Z,4.30
2019-04-19T09:04:34.907Z,2.80
2019-04-19T09:09:40.754Z,2.80
2019-04-19T09:12:06.791Z,2.37
2019-04-19T09:14:43.683Z,2.80
2019-04-19T09:17:17.404Z,2.50
2019-04-19T09:20:06.274Z,2.30
2019-04-19T09:22:09.140Z,2.30
2019-04-19T09:24:30.969Z,2.47
2019-04-19T09:27:07.891Z,2.40
2019-04-19T09:29:45.973Z,3.00
2019-04-19T09:32:02.718Z,2.67
2019-04-19T09:34:26.216Z,2.33
2019-04-19T09:37:03.703Z,1.70
2019-04-19T09:39:36.111Z,1.83
2019-04-19T09:41:59.904Z,2.40
2019-04-19T09:44:31.838Z,2.30
2019-04-19T09:46:55.047Z,2.23
2019-04-19T09:49:43.104Z,2.60
2019-04-19T09:52:11.409Z,2.10
2019-04-19T09:54:45.958Z,2.23
2019-04-19T09:57:15.780Z,2.40
2019-04-19T09:59:32.317Z,2.03
2019-04-19T10:02:00.479Z,1.97
2019-04-19T10:04:27.280Z,2.70
2019-04-19T10:06:56.551Z,2.80
2019-04-19T10:09:26.954Z,2.27
2019-04-19T10:11:57.914Z,2.20
2019-04-19T10:14:27.627Z,1.80
2019-04-19T10:16:58.624Z,2.03
2019-04-19T10:19:28.567Z,2.20
2019-04-19T10:22:00.333Z,2.27
2019-04-19T10:24:29.452Z,2.10
2019-04-19T10:27:01.001Z,2.00
2019-04-19T10:29:34.765Z,2.07
2019-04-19T10:32:12.639Z,2.37
2019-04-19T10:34:41.377Z,2.10
2019-04-19T10:37:11.299Z,2.47
2019-04-19T10:39:39.974Z,1.80
2019-04-19T10:42:10.318Z,2.30
2019-04-19T10:44:40.209Z,1.90
2019-04-19T10:47:10.156Z,2.10
2019-04-19T10:49:47.075Z,2.23
2019-04-19T10:52:23.763Z,2.10
2019-04-19T10:54:54.973Z,2.30
2019-04-19T10:57:25.450Z,2.00
2019-04-19T10:59:57.028Z,2.57
2019-04-19T11:02:28.443Z,1.83
2019-04-19T11:04:58.748Z,2.10
2019-04-19T11:07:27.672Z,2.30
2019-04-19T11:09:57.747Z,2.70
2019-04-19T11:12:26.621Z,2.30
2019-04-19T11:14:55.254Z,2.53
2019-04-19T11:17:25.550Z,2.13
2019-04-19T11:20:11.184Z,2.00
2019-04-19T11:22:25.865Z,1.93
2019-04-19T11:24:54.605Z,2.07
2019-04-19T11:27:23.267Z,2.40
2019-04-19T11:29:54.376Z,2.00
2019-04-19T11:32:26.036Z,2.03
2019-04-19T11:34:55.688Z,2.13
2019-04-19T11:37:25.501Z,2.10
2019-04-19T11:39:55.133Z,1.80
2019-04-19T11:42:23.984Z,2.60
2019-04-19T11:44:53.778Z,2.67
2019-04-19T11:47:23.114Z,2.20
2019-04-19T11:49:51.872Z,2.30
2019-04-19T11:52:22.083Z,2.73
2019-04-19T11:54:50.845Z,1.83
2019-04-19T11:57:40.755Z,2.40
2019-04-19T12:00:13.625Z,2.33
2019-04-19T12:02:44.198Z,2.10
2019-04-19T12:05:21.110Z,2.10
2019-04-19T12:07:44.393Z,1.67
2019-04-19T12:10:14.472Z,2.77
2019-04-19T12:12:43.489Z,2.30
2019-04-19T12:15:14.061Z,2.30
2019-04-19T12:17:44.330Z,1.77
2019-04-19T12:20:13.268Z,2.47
2019-04-19T12:22:42.016Z,1.93
2019-04-19T12:25:11.923Z,1.80
2019-04-19T12:27:41.548Z,1.90
2019-04-19T12:30:11.571Z,2.00
2019-04-19T12:32:43.659Z,2.10
2019-04-19T12:35:13.076Z,2.23
2019-04-19T12:37:43.112Z,1.87
2019-04-19T12:40:12.857Z,1.90
2019-04-19T12:42:42.158Z,2.20
2019-04-19T12:45:13.238Z,2.00
2019-04-19T12:47:42.907Z,1.50
2019-04-19T12:50:14.282Z,2.43
2019-04-19T12:52:44.067Z,1.97
2019-04-19T12:55:15.280Z,1.57
2019-04-19T12:57:48.300Z,1.60
2019-04-19T13:00:18.283Z,1.50
2019-04-19T13:02:49.712Z,2.37
2019-04-19T13:05:20.438Z,1.87
2019-04-19T13:07:49.374Z,2.00
2019-04-19T13:10:18.371Z,2.37
2019-04-19T13:12:49.745Z,1.70
2019-04-19T13:15:19.937Z,1.40
2019-04-19T13:17:48.616Z,2.00
2019-04-19T13:20:22.925Z,1.83
2019-04-19T13:22:50.533Z,2.67
2019-04-19T13:25:23.510Z,1.73
2019-04-19T13:27:56.307Z,2.00
2019-04-19T13:30:31.430Z,1.80
2019-04-19T13:32:54.666Z,2.90
2019-04-19T13:35:23.503Z,2.07
2019-04-19T13:37:57.055Z,1.70
2019-04-19T13:40:28.310Z,1.73
2019-04-19T13:42:58.789Z,2.17
2019-04-19T13:45:31.330Z,1.93
2019-04-19T13:47:58.706Z,2.00
2019-04-19T13:50:33.180Z,1.67
2019-04-19T13:52:58.135Z,2.43
2019-04-19T13:55:26.836Z,1.80
2019-04-19T13:57:55.726Z,1.40
2019-04-19T14:00:42.726Z,1.30
2019-04-19T14:03:11.986Z,1.80
2019-04-19T14:05:41.680Z,1.97
2019-04-19T14:08:11.157Z,1.43
2019-04-19T14:10:41.321Z,2.10
2019-04-19T14:13:10.622Z,1.90
2019-04-19T14:15:40.775Z,1.97
2019-04-19T14:18:10.855Z,2.03
2019-04-19T14:20:45.176Z,1.80
2019-04-19T14:23:10.192Z,2.40
2019-04-19T14:25:39.113Z,1.90
2019-04-19T14:28:09.335Z,2.10
2019-04-19T14:30:39.835Z,1.77
2019-04-19T14:33:08.536Z,1.73
2019-04-19T14:35:37.739Z,1.60
2019-04-19T14:38:07.593Z,1.67
2019-04-19T14:40:37.521Z,1.93
2019-04-19T14:43:06.704Z,1.90
2019-04-19T14:45:35.565Z,1.47
2019-04-19T14:48:06.690Z,1.80
2019-04-19T14:50:46.258Z,2.00
2019-04-19T14:53:08.049Z,2.07
2019-04-19T14:55:38.096Z,1.60
2019-04-19T14:58:06.999Z,1.60
2019-04-19T15:00:36.897Z,1.70
2019-04-19T15:03:09.362Z,2.13
2019-04-19T15:05:43.636Z,1.70
2019-04-19T15:08:12.831Z,1.67
2019-04-19T15:10:41.873Z,2.20
2019-04-19T15:13:10.582Z,2.50
2019-04-19T15:15:39.216Z,1.40
2019-04-19T15:18:08.772Z,2.17
2019-04-19T15:20:43.762Z,2.37
2019-04-19T15:23:10.902Z,1.50
2019-04-19T15:25:40.414Z,1.87
2019-04-19T15:28:09.291Z,1.80
2019-04-19T15:30:41.836Z,2.03
2019-04-19T15:33:08.735Z,1.80
2019-04-19T15:35:37.586Z,1.60
2019-04-19T15:38:06.160Z,2.27
2019-04-19T15:40:36.167Z,1.70
2019-04-19T15:43:05.368Z,1.80
2019-04-19T15:45:34.932Z,1.87
2019-04-19T15:48:04.777Z,2.20
2019-04-19T15:50:34.058Z,1.80
2019-04-19T15:53:04.058Z,1.93
2019-04-19T15:55:32.956Z,1.83
2019-04-19T15:58:02.126Z,1.53
2019-04-19T16:00:50.814Z,2.43
2019-04-19T16:03:24.031Z,1.80
2019-04-19T16:06:00.368Z,1.60
2019-04-19T16:08:47.526Z,1.67
2019-04-19T16:11:30.982Z,2.70
2019-04-19T16:13:59.892Z,1.97
2019-04-19T16:16:29.088Z,2.07
2019-04-19T16:18:58.402Z,1.50
2019-04-19T16:21:37.131Z,2.20
2019-04-19T16:23:58.659Z,1.63
2019-04-19T16:26:27.330Z,1.90
2019-04-19T16:28:55.996Z,1.80
2019-04-19T16:31:24.639Z,2.43
2019-04-19T16:33:54.179Z,2.47
2019-04-19T16:36:23.323Z,1.60
2019-04-19T16:38:52.996Z,1.83
2019-04-19T16:41:23.071Z,1.67
2019-04-19T16:43:51.866Z,2.37
2019-04-19T16:46:24.270Z,1.60
2019-04-19T16:48:50.979Z,2.50
2019-04-19T16:51:19.695Z,2.67
2019-04-19T16:53:49.776Z,1.73
2019-04-19T16:56:19.581Z,3.60
2019-04-19T16:58:48.800Z,2.40
2019-04-19T17:01:18.647Z,1.40
2019-04-19T17:03:47.845Z,2.07
2019-04-19T17:06:16.653Z,1.30
2019-04-19T17:08:46.187Z,1.80
2019-04-19T17:11:15.513Z,2.27
2019-04-19T17:13:44.798Z,1.70
2019-04-19T17:16:25.221Z,1.67
2019-04-19T17:18:58.968Z,1.50
2019-04-19T17:21:29.422Z,2.00
2019-04-19T17:23:58.730Z,1.10
2019-04-19T17:26:28.890Z,2.30
2019-04-19T17:28:59.037Z,1.80
2019-04-19T17:31:28.312Z,1.30
2019-04-19T17:33:58.030Z,1.67
2019-04-19T17:36:28.200Z,1.80
2019-04-19T17:38:58.739Z,2.00
2019-04-19T17:41:28.149Z,1.63
2019-04-19T17:43:57.452Z,2.00
2019-04-19T17:46:26.498Z,1.83
2019-04-19T17:48:56.793Z,2.13
2019-04-19T17:51:25.675Z,1.97
2019-04-19T17:53:54.372Z,2.57
2019-04-19T17:56:23.655Z,1.53
2019-04-19T17:58:54.008Z,2.40
2019-04-19T18:01:24.198Z,2.50
2019-04-19T18:03:53.285Z,2.10
2019-04-19T18:06:21.992Z,2.10
2019-04-19T18:08:51.798Z,2.03
2019-04-19T18:11:25.190Z,2.10
2019-04-19T18:13:51.081Z,1.60
2019-04-19T18:16:20.647Z,1.80
2019-04-19T18:18:52.283Z,1.63
2019-04-19T18:21:23.854Z,1.73
2019-04-19T18:23:58.321Z,1.63
2019-04-19T18:26:28.267Z,1.70
2019-04-19T18:28:53.051Z,2.20
2019-04-19T18:31:28.463Z,1.90
2019-04-19T18:34:01.114Z,2.33
2019-04-19T18:36:25.701Z,1.57
2019-04-19T18:38:53.947Z,3.27
2019-04-19T18:41:23.170Z,3.23
2019-04-19T18:44:04.973Z,2.50
2019-04-19T18:46:22.734Z,2.40
2019-04-19T18:48:51.789Z,2.13
2019-04-19T18:51:31.681Z,2.20
2019-04-19T18:54:05.836Z,2.00
2019-04-19T18:56:25.408Z,2.17
2019-04-19T18:58:54.218Z,8.97
2019-04-19T19:01:30.956Z,4.57
2019-04-19T19:03:53.854Z,3.30
2019-04-19T19:06:28.608Z,2.90
2019-04-19T19:09:01.032Z,1.83
2019-04-19T19:11:25.787Z,2.50
2019-04-19T19:13:55.165Z,2.43
2019-04-19T19:16:27.146Z,12.53
2019-04-19T19:18:59.112Z,7.37
2019-04-19T19:21:33.879Z,3.20
2019-04-19T19:24:26.059Z,2.40
2019-04-19T19:26:36.027Z,2.43
2019-04-19T19:29:02.301Z,2.63
2019-04-19T19:31:32.558Z,2.37
2019-04-19T19:34:01.675Z,2.17
2019-04-19T19:36:37.987Z,1.63
2019-04-19T19:39:08.595Z,1.90
2019-04-19T19:42:21.799Z,1.67
2019-04-19T19:44:13.222Z,3.07
2019-04-19T19:47:07.105Z,2.30
2019-04-19T19:51:49.941Z,2.00
2019-04-19T19:54:43.459Z,1.67
2019-04-19T19:57:02.279Z,2.03
2019-04-19T19:59:24.004Z,2.27
2019-04-19T20:01:54.543Z,2.47
2019-04-19T20:04:13.218Z,2.03
2019-04-19T20:06:49.083Z,2.00
2019-04-19T20:09:16.683Z,1.70
2019-04-19T20:11:43.783Z,1.57
2019-04-19T20:14:15.668Z,2.23
2019-04-19T20:16:45.396Z,1.90
2019-04-19T20:19:16.250Z,2.87
2019-04-19T20:21:50.468Z,2.20
2019-04-19T20:24:31.268Z,2.40
2019-04-19T20:26:57.284Z,2.07
2019-04-19T20:29:22.300Z,2.60
2019-04-19T20:31:46.021Z,2.67
2019-04-19T20:34:22.653Z,2.40
2019-04-19T20:36:47.148Z,2.00
2019-04-19T20:39:17.959Z,2.40
2019-04-19T20:41:50.720Z,2.50
2019-04-19T20:44:35.000Z,2.43
2019-04-19T20:46:48.299Z,2.27
2019-04-19T20:49:17.229Z,3.37
2019-04-19T20:52:00.807Z,2.17
2019-04-19T20:54:46.320Z,2.93
2019-04-19T20:57:21.191Z,2.40
2019-04-19T20:59:41.122Z,3.27
2019-04-19T21:02:15.371Z,2.13
2019-04-19T21:04:34.653Z,3.00
2019-04-19T21:07:08.915Z,3.30
2019-04-19T21:09:37.363Z,3.10
2019-04-19T21:12:04.609Z,2.83
2019-04-19T21:14:38.190Z,2.60
2019-04-19T21:17:06.933Z,2.80
2019-04-19T21:19:38.333Z,3.50
2019-04-19T21:22:06.327Z,3.03
2019-04-19T21:24:51.900Z,2.90
2019-04-19T21:27:10.761Z,3.20
2019-04-19T21:29:39.334Z,3.27
2019-04-19T21:32:06.938Z,2.80
2019-04-19T21:34:38.598Z,3.30
2019-04-19T21:37:08.756Z,2.53
2019-04-19T21:39:44.133Z,3.30
2019-04-19T21:42:09.752Z,2.77
2019-04-19T21:44:38.806Z,3.37
2019-04-19T21:47:10.882Z,3.13
2019-04-19T21:49:39.007Z,3.57
2019-04-19T21:52:13.786Z,4.00
2019-04-19T21:54:38.848Z,3.43
2019-04-19T21:57:08.897Z,3.67
2019-04-19T21:59:40.673Z,3.40
2019-04-19T22:02:08.741Z,3.07
2019-04-19T22:04:43.787Z,3.60
2019-04-19T22:07:09.017Z,3.67
2019-04-19T22:09:41.453Z,5.03
2019-04-19T22:12:08.233Z,2.97
2019-04-19T22:14:38.123Z,4.13
2019-04-19T22:17:12.807Z,3.87
2019-04-19T22:19:38.691Z,3.23
2019-04-19T22:22:09.025Z,4.17
2019-04-19T22:24:39.865Z,3.73
2019-04-19T22:27:09.520Z,4.47
2019-04-19T22:29:38.269Z,4.07
2019-04-19T22:32:13.623Z,3.80
2019-04-19T22:34:37.756Z,4.03
2019-04-19T22:37:06.800Z,3.40
2019-04-19T22:39:35.680Z,3.97
2019-04-19T22:42:04.734Z,3.70
2019-04-19T22:44:34.631Z,3.97
2019-04-19T22:47:03.855Z,3.90
2019-04-19T22:49:35.194Z,4.90
2019-04-19T22:52:03.171Z,5.13
2019-04-19T22:54:32.861Z,3.80
2019-04-19T22:57:09.543Z,4.43
2019-04-19T22:59:32.016Z,4.03
2019-04-19T23:02:10.350Z,4.23
2019-04-19T23:04:39.116Z,4.00
2019-04-19T23:07:10.961Z,4.50
2019-04-19T23:09:38.860Z,4.50
2019-04-19T23:12:07.795Z,3.67
2019-04-19T23:14:50.540Z,4.50
2019-04-19T23:17:28.447Z,5.60
2019-04-19T23:19:53.344Z,4.67
2019-04-19T23:22:22.824Z,6.13
2019-04-19T23:24:56.773Z,5.30
2019-04-19T23:27:34.654Z,4.70
2019-04-19T23:29:54.033Z,4.63
2019-04-19T23:32:28.573Z,4.23
2019-04-19T23:34:54.179Z,5.20
2019-04-19T23:37:24.033Z,5.60
2019-04-19T23:39:54.375Z,5.00
2019-04-19T23:42:23.148Z,5.30
2019-04-19T23:44:56.412Z,6.13
2019-04-19T23:47:22.469Z,4.90
2019-04-19T23:49:55.509Z,6.40
2019-04-19T23:52:23.385Z,5.00
2019-04-19T23:54:52.391Z,4.67
2019-04-19T23:57:26.244Z,4.37
2019-04-19T23:59:59.788Z,4.63
